Time;durP1;ratioP1;P1;durP2;ratioP2;P2;SDS_P1;SDS_P2;PMS_P1;PMS_P2;Temp;Humidity;BMP_temperature;BMP_pressure;BME280_temperature;BME280_humidity;BME280_pressure;Samples;Min_cycle;Max_cycle;Signal;HPM_P1;HPM_P2
2023/07/29 00:00:42;;;;;;;4.93;4.35;;;;;;;17.81;100.00;100552.56;4967054;28;20031;-71
2023/07/29 00:03:08;;;;;;;4.70;4.22;;;;;;;17.88;100.00;100552.88;4980531;28;20516;-71
2023/07/29 00:05:33;;;;;;;5.35;4.50;;;;;;;17.97;100.00;100537.75;4965000;28;20292;-71
2023/07/29 00:07:59;;;;;;;5.22;4.03;;;;;;;18.00;100.00;100542.88;4963776;28;20202;-71
2023/07/29 00:10:26;;;;;;;6.55;5.00;;;;;;;18.02;100.00;100543.63;4968629;28;20081;-71
2023/07/29 00:12:52;;;;;;;5.28;4.65;;;;;;;18.04;100.00;100547.03;4965439;28;20434;-71
2023/07/29 00:15:18;;;;;;;6.32;4.30;;;;;;;18.05;100.00;100543.34;4970966;28;20057;-71
2023/07/29 00:17:43;;;;;;;5.05;4.53;;;;;;;18.06;100.00;100551.28;4968867;28;20035;-71
2023/07/29 00:20:09;;;;;;;5.90;4.68;;;;;;;18.05;100.00;100549.56;4964868;28;20029;-71
2023/07/29 00:22:34;;;;;;;4.97;4.20;;;;;;;18.06;100.00;100545.91;4978390;28;20399;-71
2023/07/29 00:24:59;;;;;;;4.80;4.30;;;;;;;18.07;100.00;100552.16;4970550;28;20595;-71
2023/07/29 00:27:25;;;;;;;5.63;4.57;;;;;;;18.04;100.00;100549.72;4984413;28;20042;-71
2023/07/29 00:29:51;;;;;;;5.07;4.50;;;;;;;18.02;100.00;100546.31;4968643;28;20109;-71
2023/07/29 00:32:17;;;;;;;5.60;5.07;;;;;;;18.00;100.00;100538.34;4983114;28;20571;-71
2023/07/29 00:34:42;;;;;;;4.65;4.25;;;;;;;17.99;100.00;100546.56;4981551;28;20038;-71
2023/07/29 00:37:07;;;;;;;4.88;4.47;;;;;;;17.97;100.00;100543.13;4971417;28;20058;-71
2023/07/29 00:39:33;;;;;;;5.10;4.70;;;;;;;17.94;100.00;100527.28;4964544;28;20625;-70
2023/07/29 00:41:58;;;;;;;5.38;4.68;;;;;;;17.86;100.00;100531.47;4971335;28;20113;-71
2023/07/29 00:44:24;;;;;;;6.45;4.43;;;;;;;17.82;100.00;100511.19;4965570;28;20398;-70
2023/07/29 00:46:53;;;;;;;5.07;4.65;;;;;;;17.77;100.00;100518.81;4973523;28;20066;-71
2023/07/29 00:49:19;;;;;;;5.65;4.97;;;;;;;17.72;100.00;100518.31;4978048;28;20030;-70
2023/07/29 00:51:45;;;;;;;5.32;4.80;;;;;;;17.70;100.00;100512.22;4978142;28;20042;-71
2023/07/29 00:54:10;;;;;;;6.53;5.40;;;;;;;17.67;100.00;100515.16;4968317;28;20086;-71
2023/07/29 00:56:36;;;;;;;7.15;5.60;;;;;;;17.64;100.00;100508.22;4976210;28;20110;-71
2023/07/29 00:59:02;;;;;;;5.60;5.10;;;;;;;17.63;100.00;100513.72;4952069;28;20022;-71
2023/07/29 01:01:29;;;;;;;5.78;4.70;;;;;;;17.63;100.00;100511.88;4965480;28;20158;-70
2023/07/29 01:03:54;;;;;;;6.18;5.57;;;;;;;17.63;100.00;100513.72;4968774;28;20064;-70
2023/07/29 01:06:58;;;;;;;5.75;4.75;;;;;;;17.64;100.00;100516.28;4976755;28;20078;-70
2023/07/29 01:09:48;;;;;;;5.68;5.15;;;;;;;17.62;100.00;100517.41;4965185;28;20381;-70
2023/07/29 01:12:20;;;;;;;7.07;5.32;;;;;;;17.61;100.00;100515.69;4964256;28;20034;-71
2023/07/29 01:15:16;;;;;;;5.40;4.90;;;;;;;17.59;100.00;100507.72;4973972;28;20073;-70
2023/07/29 01:17:59;;;;;;;5.78;5.15;;;;;;;17.57;100.00;100514.25;4967591;28;20054;-70
2023/07/29 01:20:25;;;;;;;6.65;5.53;;;;;;;17.54;100.00;100515.34;4974811;28;20022;-70
2023/07/29 01:22:50;;;;;;;6.20;5.60;;;;;;;17.51;100.00;100514.75;4968366;28;20517;-70
2023/07/29 01:25:16;;;;;;;5.93;5.00;;;;;;;17.54;100.00;100517.19;4974437;28;20642;-69
2023/07/29 01:27:46;;;;;;;8.90;5.57;;;;;;;17.53;100.00;100524.41;4964725;28;20249;-69
2023/07/29 01:30:12;;;;;;;5.75;5.20;;;;;;;17.50;100.00;100519.28;4978689;28;20030;-70
2023/07/29 01:33:13;;;;;;;5.30;4.72;;;;;;;17.55;100.00;100518.91;4968005;28;20469;-70
2023/07/29 01:35:53;;;;;;;6.30;5.70;;;;;;;17.53;100.00;100532.50;4956191;28;20805;-70
2023/07/29 01:38:31;;;;;;;5.38;4.88;;;;;;;17.53;100.00;100531.66;4961078;28;20350;-69
2023/07/29 01:40:59;;;;;;;6.50;4.60;;;;;;;17.47;100.00;100524.91;4958160;28;20031;-70
2023/07/29 01:43:25;;;;;;;4.95;4.45;;;;;;;17.42;100.00;100514.56;4958506;28;20224;-70
2023/07/29 01:45:51;;;;;;;5.53;4.30;;;;;;;17.37;100.00;100522.16;4960399;28;20500;-70
2023/07/29 01:48:17;;;;;;;5.10;4.60;;;;;;;17.35;100.00;100534.06;4949823;28;20468;-69
2023/07/29 01:50:42;;;;;;;4.88;4.47;;;;;;;17.28;100.00;100530.16;4959702;28;20620;-69
2023/07/29 01:53:08;;;;;;;4.60;4.20;;;;;;;17.27;100.00;100536.53;4951997;28;20441;-70
2023/07/29 01:55:33;;;;;;;5.88;4.47;;;;;;;17.17;100.00;100539.13;4954538;28;20042;-70
2023/07/29 01:57:59;;;;;;;4.95;4.30;;;;;;;17.11;100.00;100532.44;4959917;28;20588;-71
2023/07/29 02:00:24;;;;;;;5.07;3.80;;;;;;;17.05;100.00;100534.75;4954287;28;20050;-70
2023/07/29 02:02:49;;;;;;;5.30;4.80;;;;;;;16.96;100.00;100533.69;4951748;28;20039;-70
2023/07/29 02:05:15;;;;;;;5.65;4.15;;;;;;;16.89;100.00;100529.81;4944235;28;20880;-71
2023/07/29 02:07:40;;;;;;;4.68;4.25;;;;;;;16.86;100.00;100525.53;4957886;28;20046;-70
2023/07/29 02:10:06;;;;;;;5.80;4.50;;;;;;;16.80;100.00;100522.47;4978599;28;20059;-69
2023/07/29 02:12:31;;;;;;;5.53;4.90;;;;;;;16.74;100.00;100521.16;4969381;28;20015;-70
2023/07/29 02:14:57;;;;;;;5.57;4.75;;;;;;;16.71;100.00;100529.44;4971102;28;20030;-71
2023/07/29 02:17:23;;;;;;;6.53;4.80;;;;;;;16.70;100.00;100519.66;4967298;28;20496;-70
2023/07/29 02:19:48;;;;;;;4.70;4.30;;;;;;;16.73;100.00;100532.06;4979013;28;20113;-71
2023/07/29 02:22:14;;;;;;;4.43;4.03;;;;;;;16.73;100.00;100527.53;4979246;28;20066;-71
2023/07/29 02:24:40;;;;;;;5.20;4.38;;;;;;;16.73;100.00;100518.63;4976351;28;20265;-71
2023/07/29 02:27:06;;;;;;;4.50;3.90;;;;;;;16.65;100.00;100511.13;4973766;28;20092;-72
2023/07/29 02:29:32;;;;;;;5.10;3.60;;;;;;;16.64;100.00;100510.28;4982878;28;20037;-70
2023/07/29 02:31:59;;;;;;;4.65;4.13;;;;;;;16.63;100.00;100508.56;4981529;28;20053;-70
2023/07/29 02:34:24;;;;;;;4.22;3.60;;;;;;;16.59;100.00;100512.47;4977575;28;20079;-70
2023/07/29 02:36:49;;;;;;;4.00;3.60;;;;;;;16.56;100.00;100514.59;4969493;28;20146;-70
2023/07/29 02:39:15;;;;;;;4.72;4.00;;;;;;;16.53;100.00;100522.88;4982553;28;20018;-71
2023/07/29 02:41:40;;;;;;;4.93;3.60;;;;;;;16.55;100.00;100516.38;4968967;28;20141;-71
2023/07/29 02:44:06;;;;;;;6.00;4.40;;;;;;;16.50;100.00;100518.59;4981155;28;20292;-71
2023/07/29 02:46:31;;;;;;;7.05;4.70;;;;;;;16.48;100.00;100514.34;4969285;28;20050;-70
2023/07/29 02:49:02;;;;;;;5.75;4.25;;;;;;;16.46;100.00;100511.75;4976222;28;20089;-71
2023/07/29 02:51:31;;;;;;;5.28;4.78;;;;;;;16.47;100.00;100513.50;4977257;28;20516;-71
2023/07/29 02:53:56;;;;;;;5.40;4.80;;;;;;;16.48;100.00;100503.59;4968503;28;20057;-71
2023/07/29 02:56:22;;;;;;;7.03;4.97;;;;;;;16.47;100.00;100513.50;4977798;28;20111;-71
2023/07/29 02:58:47;;;;;;;5.72;4.38;;;;;;;16.45;100.00;100507.38;4967491;28;20476;-71
2023/07/29 03:01:13;;;;;;;5.03;4.53;;;;;;;16.44;100.00;100509.22;4965156;28;20081;-71
2023/07/29 03:03:39;;;;;;;6.32;4.90;;;;;;;16.42;100.00;100503.09;4979176;28;20018;-71
2023/07/29 03:06:09;;;;;;;5.70;4.50;;;;;;;16.47;100.00;100501.88;4980324;28;20038;-71
2023/07/29 03:08:35;;;;;;;6.38;5.00;;;;;;;16.46;100.00;100508.22;4975554;28;20092;-70
2023/07/29 03:11:12;;;;;;;4.63;4.22;;;;;;;16.44;100.00;100506.53;4976769;28;21405;-71
2023/07/29 03:13:38;;;;;;;5.10;4.55;;;;;;;16.43;100.00;100502.13;4979889;28;20038;-71
2023/07/29 03:16:11;;;;;;;4.88;4.38;;;;;;;16.41;100.00;100500.53;4981358;28;20443;-71
2023/07/29 03:18:36;;;;;;;5.22;4.68;;;;;;;16.37;100.00;100502.63;4975452;28;20027;-71
2023/07/29 03:21:02;;;;;;;5.95;4.65;;;;;;;16.37;100.00;100499.09;4973617;28;20038;-70
2023/07/29 03:23:33;;;;;;;4.55;4.15;;;;;;;16.32;100.00;100504.81;4970464;28;20035;-71
2023/07/29 03:26:00;;;;;;;6.35;4.55;;;;;;;16.30;100.00;100512.16;4978053;28;20113;-71
2023/07/29 03:28:27;;;;;;;5.15;4.65;;;;;;;16.27;100.00;100515.09;4972579;28;20031;-70
2023/07/29 03:30:53;;;;;;;5.07;4.55;;;;;;;16.27;100.00;100514.25;4978928;28;20034;-71
2023/07/29 03:33:19;;;;;;;5.65;4.78;;;;;;;16.28;100.00;100519.47;4972035;28;20118;-71
2023/07/29 03:35:44;;;;;;;6.38;4.75;;;;;;;16.22;100.00;100517.28;4978631;28;20548;-71
2023/07/29 03:38:11;;;;;;;4.93;4.50;;;;;;;16.22;100.00;100509.25;4969653;28;20100;-71
2023/07/29 03:40:40;;;;;;;5.32;3.83;;;;;;;16.22;100.00;100511.03;4967766;28;20027;-71
2023/07/29 03:43:06;;;;;;;4.82;4.40;;;;;;;16.16;100.00;100520.44;4980959;28;20121;-70
2023/07/29 03:45:32;;;;;;;4.18;3.78;;;;;;;16.12;100.00;100522.53;4984633;28;20105;-71
2023/07/29 03:48:00;;;;;;;5.05;4.28;;;;;;;16.11;100.00;100517.28;4979702;28;20019;-71
2023/07/29 03:50:26;;;;;;;4.55;4.15;;;;;;;16.07;100.00;100523.88;4969019;28;20074;-71
2023/07/29 03:52:51;;;;;;;5.70;4.47;;;;;;;16.06;100.00;100527.53;4979158;28;20137;-71
2023/07/29 03:55:17;;;;;;;5.60;4.30;;;;;;;16.02;100.00;100524.22;4975724;28;20916;-70
2023/07/29 03:57:42;;;;;;;6.57;4.50;;;;;;;15.98;100.00;100521.91;4980038;28;20026;-70
2023/07/29 04:00:11;;;;;;;5.47;4.40;;;;;;;15.93;100.00;100509.72;4972917;28;20023;-71
2023/07/29 04:02:37;;;;;;;6.45;4.70;;;;;;;15.91;100.00;100486.63;4969480;28;20018;-71
2023/07/29 04:05:04;;;;;;;5.82;4.35;;;;;;;15.91;100.00;100483.94;4983216;28;20046;-70
2023/07/29 04:07:30;;;;;;;5.22;4.15;;;;;;;15.92;100.00;100481.13;4984490;28;20030;-71
2023/07/29 04:09:55;;;;;;;4.53;4.07;;;;;;;15.86;100.00;100478.09;4981938;28;20058;-70
2023/07/29 04:12:21;;;;;;;6.03;4.22;;;;;;;15.85;100.00;100474.56;4973376;28;20026;-70
2023/07/29 04:14:47;;;;;;;5.00;4.28;;;;;;;15.86;100.00;100480.78;4974290;28;20027;-70
2023/07/29 04:17:12;;;;;;;5.55;4.10;;;;;;;15.84;100.00;100477.34;4972194;28;20481;-70
2023/07/29 04:19:38;;;;;;;7.07;4.53;;;;;;;15.80;100.00;100475.88;4979262;28;20030;-70
2023/07/29 04:22:03;;;;;;;4.93;4.20;;;;;;;15.82;100.00;100493.59;4982319;28;20146;-70
2023/07/29 04:24:29;;;;;;;5.10;3.72;;;;;;;15.79;100.00;100506.38;4977650;28;20018;-70
2023/07/29 04:26:54;;;;;;;4.50;3.90;;;;;;;15.75;100.00;100516.50;4967569;28;20334;-70
2023/07/29 04:29:20;;;;;;;4.70;3.75;;;;;;;15.70;100.00;100518.69;4973052;28;20041;-70
2023/07/29 04:31:45;;;;;;;4.85;4.18;;;;;;;15.66;100.00;100526.13;4983075;28;20022;-70
2023/07/29 04:34:11;;;;;;;5.43;4.00;;;;;;;15.64;100.00;100528.06;4980714;28;20440;-70
2023/07/29 04:36:36;;;;;;;4.47;3.20;;;;;;;15.69;100.00;100533.09;4962280;28;20049;-71
2023/07/29 04:39:02;;;;;;;5.18;3.78;;;;;;;15.70;100.00;100540.16;4976894;28;20026;-70
2023/07/29 04:41:27;;;;;;;3.97;3.25;;;;;;;15.73;100.00;100537.25;4972185;28;20034;-70
2023/07/29 04:43:53;;;;;;;3.95;3.50;;;;;;;15.84;100.00;100547.13;4979199;28;20025;-71
2023/07/29 04:46:18;;;;;;;5.03;3.30;;;;;;;15.89;100.00;100536.91;4975683;28;20159;-70
2023/07/29 04:48:43;;;;;;;3.40;3.10;;;;;;;15.96;100.00;100538.13;4974682;28;20018;-70
2023/07/29 04:51:08;;;;;;;4.07;3.15;;;;;;;15.99;100.00;100534.34;4981132;28;20025;-70
2023/07/29 04:53:36;;;;;;;3.40;3.10;;;;;;;16.00;100.00;100536.06;4976989;28;20030;-70
2023/07/29 04:56:02;;;;;;;3.60;2.80;;;;;;;15.99;100.00;100535.19;4980840;28;20038;-70
2023/07/29 04:58:29;;;;;;;3.63;3.33;;;;;;;16.00;100.00;100530.69;4980074;28;20038;-70
2023/07/29 05:00:55;;;;;;;4.10;3.10;;;;;;;16.02;100.00;100528.75;4967273;28;20018;-69
2023/07/29 05:03:20;;;;;;;3.90;3.30;;;;;;;16.03;100.00;100546.56;4970910;28;20045;-69
2023/07/29 05:05:46;;;;;;;4.35;3.50;;;;;;;16.02;100.00;100544.84;4977993;28;20070;-69
2023/07/29 05:08:11;;;;;;;3.40;3.10;;;;;;;16.03;100.00;100552.78;4980766;28;20757;-69
2023/07/29 05:10:36;;;;;;;3.30;2.97;;;;;;;16.06;100.00;100562.44;4972138;28;20035;-69
2023/07/29 05:13:02;;;;;;;3.50;3.20;;;;;;;16.07;100.00;100562.31;4981301;28;20026;-70
2023/07/29 05:15:27;;;;;;;3.15;2.85;;;;;;;16.10;100.00;100570.13;4979278;28;20276;-69
2023/07/29 05:17:53;;;;;;;4.20;3.67;;;;;;;16.16;100.00;100563.41;4980739;28;20118;-70
2023/07/29 05:20:18;;;;;;;3.53;3.17;;;;;;;16.20;100.00;100562.19;4969722;28;20072;-69
2023/07/29 05:22:44;;;;;;;3.70;3.13;;;;;;;16.23;100.00;100564.66;4979333;28;20086;-69
2023/07/29 05:25:09;;;;;;;4.60;2.85;;;;;;;16.25;100.00;100561.81;4977923;28;20061;-69
2023/07/29 05:27:34;;;;;;;3.90;2.85;;;;;;;16.22;100.00;100560.25;4982773;28;20030;-70
2023/07/29 05:30:00;;;;;;;4.65;2.80;;;;;;;16.13;100.00;100559.13;4969605;28;20449;-70
2023/07/29 05:32:25;;;;;;;3.75;3.10;;;;;;;16.07;100.00;100561.44;4993625;28;20109;-70
2023/07/29 05:34:51;;;;;;;4.38;2.92;;;;;;;15.98;100.00;100557.66;4985413;28;20069;-70
2023/07/29 05:37:16;;;;;;;3.47;2.72;;;;;;;15.96;100.00;100561.44;4981531;28;20588;-70
2023/07/29 05:39:41;;;;;;;4.13;2.80;;;;;;;15.91;100.00;100562.63;4981278;28;20041;-70
2023/07/29 05:42:08;;;;;;;4.07;3.10;;;;;;;15.94;100.00;100564.25;4983375;28;20118;-71
2023/07/29 05:44:33;;;;;;;3.20;2.90;;;;;;;16.00;100.00;100561.06;4970908;28;20100;-70
2023/07/29 05:47:01;;;;;;;3.53;2.92;;;;;;;16.06;100.00;100568.66;4978418;28;20036;-70
2023/07/29 05:49:26;;;;;;;3.55;2.83;;;;;;;16.08;100.00;100557.78;4977339;28;20027;-70
2023/07/29 05:51:52;;;;;;;3.55;3.08;;;;;;;16.20;100.00;100570.25;4983057;28;20199;-70
2023/07/29 05:54:18;;;;;;;3.58;2.53;;;;;;;16.29;100.00;100558.78;4975656;28;20501;-69
2023/07/29 05:56:44;;;;;;;3.97;3.00;;;;;;;16.37;100.00;100561.72;4984936;28;20060;-70
2023/07/29 05:59:09;;;;;;;3.00;2.70;;;;;;;16.58;100.00;100559.13;4984468;28;20165;-70
2023/07/29 06:01:35;;;;;;;3.70;3.10;;;;;;;16.81;100.00;100560.00;4979427;28;20279;-71
2023/07/29 06:04:00;;;;;;;3.53;3.03;;;;;;;17.09;100.00;100558.56;4986765;28;20077;-71
2023/07/29 06:06:26;;;;;;;3.30;2.63;;;;;;;17.28;100.00;100559.75;4982080;28;20078;-71
2023/07/29 06:08:51;;;;;;;3.42;2.60;;;;;;;17.32;100.00;100566.59;4984222;28;20030;-71
2023/07/29 06:11:17;;;;;;;3.45;2.63;;;;;;;17.27;100.00;100560.75;4982032;28;20042;-71
2023/07/29 06:13:42;;;;;;;3.78;2.50;;;;;;;17.22;100.00;100550.34;4975341;28;20027;-71
2023/07/29 06:16:08;;;;;;;2.92;2.55;;;;;;;17.23;100.00;100549.38;4969191;28;20035;-70
2023/07/29 06:18:33;;;;;;;3.45;2.33;;;;;;;17.38;100.00;100544.53;4979947;28;20150;-70
2023/07/29 06:20:58;;;;;;;3.35;2.40;;;;;;;17.63;100.00;100544.16;4984096;28;20097;-70
2023/07/29 06:23:24;;;;;;;2.95;2.10;;;;;;;17.99;100.00;100546.56;4979333;28;20030;-70
2023/07/29 06:25:49;;;;;;;2.92;2.20;;;;;;;18.13;100.00;100554.28;4977085;28;20030;-70
2023/07/29 06:28:14;;;;;;;2.55;2.22;;;;;;;18.37;100.00;100551.28;4980505;28;20026;-70
2023/07/29 06:30:40;;;;;;;3.75;2.50;;;;;;;18.52;100.00;100539.16;4977213;28;20034;-71
2023/07/29 06:33:06;;;;;;;2.70;2.50;;;;;;;18.77;98.10;100556.72;4978863;28;20031;-70
2023/07/29 06:35:31;;;;;;;3.35;2.30;;;;;;;18.79;98.20;100556.59;4974794;28;20085;-71
2023/07/29 06:37:56;;;;;;;2.95;2.05;;;;;;;18.96;97.95;100561.31;4982534;28;20058;-70
2023/07/29 06:40:22;;;;;;;3.05;2.20;;;;;;;19.12;95.85;100558.06;4983607;28;20034;-70
2023/07/29 06:42:47;;;;;;;2.38;2.17;;;;;;;19.01;95.38;100559.03;4981176;28;20105;-70
2023/07/29 06:45:13;;;;;;;2.50;2.28;;;;;;;18.94;96.99;100565.16;4984071;28;20113;-70
2023/07/29 06:47:38;;;;;;;3.35;2.40;;;;;;;18.91;97.53;100560.88;4974219;28;20125;-70
2023/07/29 06:50:04;;;;;;;2.60;2.05;;;;;;;18.95;98.15;100556.06;4983542;28;20031;-70
2023/07/29 06:52:30;;;;;;;3.90;2.45;;;;;;;18.86;97.42;100569.38;4974406;28;20605;-71
2023/07/29 06:54:56;;;;;;;3.42;2.10;;;;;;;18.91;97.10;100567.13;4981081;28;20038;-70
2023/07/29 06:57:21;;;;;;;2.97;2.47;;;;;;;19.09;96.71;100575.38;4969677;28;20034;-70
2023/07/29 06:59:46;;;;;;;4.32;3.13;;;;;;;19.20;94.56;100571.72;4975475;28;20030;-70
2023/07/29 07:02:12;;;;;;;2.75;2.47;;;;;;;19.26;94.40;100573.84;4969285;28;20461;-71
2023/07/29 07:04:37;;;;;;;3.25;1.98;;;;;;;19.22;94.90;100577.81;4972362;28;20042;-70
2023/07/29 07:07:03;;;;;;;3.13;2.20;;;;;;;19.16;95.33;100581.94;4979661;28;20154;-70
2023/07/29 07:09:28;;;;;;;2.72;2.42;;;;;;;19.15;93.49;100569.44;4984363;28;20071;-70
2023/07/29 07:11:53;;;;;;;3.00;2.20;;;;;;;19.15;93.26;100584.78;4970976;28;20036;-70
2023/07/29 07:14:19;;;;;;;2.20;2.00;;;;;;;19.12;94.36;100575.09;4982220;28;20038;-69
2023/07/29 07:16:44;;;;;;;2.55;2.00;;;;;;;19.20;93.26;100590.59;4976895;28;20584;-69
2023/07/29 07:19:10;;;;;;;2.72;2.10;;;;;;;19.27;94.02;100580.97;4974411;28;20069;-71
2023/07/29 07:21:36;;;;;;;4.20;2.22;;;;;;;19.43;93.46;100583.06;4985192;28;20192;-71
2023/07/29 07:24:01;;;;;;;2.10;1.90;;;;;;;19.47;92.04;100578.25;4976674;28;20052;-71
2023/07/29 07:26:27;;;;;;;2.13;1.92;;;;;;;19.95;90.51;100582.81;4975785;28;20102;-70
2023/07/29 07:28:52;;;;;;;3.33;2.47;;;;;;;20.13;88.82;100586.47;4974151;28;20445;-71
2023/07/29 07:31:17;;;;;;;2.47;2.00;;;;;;;20.42;88.01;100582.81;4975971;28;20038;-70
2023/07/29 07:33:43;;;;;;;3.50;2.00;;;;;;;20.89;85.50;100589.03;4973551;28;20036;-71
2023/07/29 07:36:08;;;;;;;3.15;2.13;;;;;;;21.03;82.94;100593.94;4972415;28;20157;-71
2023/07/29 07:38:33;;;;;;;2.38;1.95;;;;;;;20.89;82.58;100597.16;4977327;28;20105;-70
2023/07/29 07:40:59;;;;;;;3.50;2.05;;;;;;;20.68;82.76;100596.53;4976825;28;20027;-70
2023/07/29 07:43:24;;;;;;;2.75;1.52;;;;;;;20.50;84.46;100604.59;4965092;28;20038;-71
2023/07/29 07:45:50;;;;;;;1.65;1.55;;;;;;;20.39;84.37;100597.47;4975412;28;20106;-70
2023/07/29 07:48:16;;;;;;;1.50;1.40;;;;;;;20.54;86.37;100596.03;4972530;28;20509;-70
2023/07/29 07:50:42;;;;;;;1.50;1.40;;;;;;;20.74;82.97;100593.25;4967502;28;20027;-70
2023/07/29 07:53:08;;;;;;;2.55;1.48;;;;;;;21.03;83.67;100603.94;4965648;28;20053;-70
2023/07/29 07:55:33;;;;;;;2.20;1.73;;;;;;;21.30;79.99;100595.75;4969987;28;20485;-71
2023/07/29 07:57:59;;;;;;;2.20;1.48;;;;;;;21.95;76.34;100602.81;4970738;28;20038;-70
2023/07/29 08:00:24;;;;;;;2.17;1.58;;;;;;;22.33;75.83;100604.31;4980985;28;20694;-70
2023/07/29 08:02:49;;;;;;;2.55;2.03;;;;;;;22.03;74.98;100609.16;4999414;28;20065;-70
2023/07/29 08:05:15;;;;;;;1.50;1.40;;;;;;;21.96;77.47;100602.66;4980032;28;20065;-70
2023/07/29 08:07:40;;;;;;;2.97;1.70;;;;;;;22.07;77.10;100606.94;4964961;28;20037;-70
2023/07/29 08:10:06;;;;;;;3.08;1.55;;;;;;;22.39;77.73;100609.06;4974057;28;20065;-70
2023/07/29 08:12:32;;;;;;;1.83;1.52;;;;;;;22.59;75.18;100596.97;4965332;28;20023;-71
2023/07/29 08:14:57;;;;;;;3.17;1.55;;;;;;;23.19;74.01;100587.06;4980190;28;20109;-70
2023/07/29 08:17:23;;;;;;;2.47;1.95;;;;;;;23.24;69.63;100595.53;4973288;28;20066;-69
2023/07/29 08:19:49;;;;;;;1.70;1.60;;;;;;;23.20;69.69;100605.03;4965174;28;20011;-70
2023/07/29 08:22:14;;;;;;;1.88;1.45;;;;;;;23.41;69.24;100608.16;4978000;28;20101;-70
2023/07/29 08:24:40;;;;;;;1.77;1.10;;;;;;;23.06;71.19;100604.66;4965088;28;20490;-69
2023/07/29 08:27:06;;;;;;;1.70;1.20;;;;;;;22.97;72.08;100604.81;4965136;28;20031;-69
2023/07/29 08:29:31;;;;;;;2.00;1.30;;;;;;;22.53;71.04;100613.03;4967365;28;20122;-69
2023/07/29 08:31:57;;;;;;;2.50;1.65;;;;;;;22.04;73.51;100610.00;4976657;28;20022;-69
2023/07/29 08:34:22;;;;;;;3.30;1.73;;;;;;;21.76;76.09;100614.66;4968122;28;20496;-69
2023/07/29 08:36:48;;;;;;;1.60;1.33;;;;;;;21.39;76.60;100602.97;4983248;28;20092;-70
2023/07/29 08:39:13;;;;;;;3.17;1.80;;;;;;;21.18;77.50;100606.94;4976851;28;20518;-70
2023/07/29 08:42:07;;;;;;;2.30;1.58;;;;;;;21.10;78.89;100603.16;4978295;28;20601;-70
2023/07/29 08:44:41;;;;;;;2.03;1.77;;;;;;;21.13;77.71;100602.84;4976270;28;20074;-71
2023/07/29 08:47:06;;;;;;;1.65;1.50;;;;;;;21.28;76.14;100615.88;4981983;28;20080;-71
2023/07/29 08:49:33;;;;;;;1.58;1.42;;;;;;;21.24;75.88;100595.53;4968043;28;20022;-71
2023/07/29 08:51:59;;;;;;;2.10;1.60;;;;;;;21.17;76.08;100603.41;4973569;28;20037;-71
2023/07/29 08:54:25;;;;;;;2.00;1.35;;;;;;;21.77;75.80;100609.09;4976086;28;20072;-71
2023/07/29 08:56:50;;;;;;;2.30;1.20;;;;;;;22.60;70.43;100603.25;4970302;28;20505;-71
2023/07/29 08:59:17;;;;;;;1.58;1.33;;;;;;;23.17;69.69;100599.97;4976847;28;20038;-71
2023/07/29 09:01:43;;;;;;;1.50;1.20;;;;;;;23.87;66.59;100600.44;4977092;28;20041;-71
2023/07/29 09:04:08;;;;;;;2.63;1.50;;;;;;;24.68;65.07;100602.16;4978282;28;20287;-71
2023/07/29 09:06:36;;;;;;;1.95;1.27;;;;;;;26.17;59.89;100587.41;4967326;28;20129;-71
2023/07/29 09:09:05;;;;;;;2.15;1.30;;;;;;;27.34;54.99;100595.75;4967383;28;20034;-71
2023/07/29 09:11:31;;;;;;;1.92;1.10;;;;;;;27.38;53.37;100584.28;4976971;28;20161;-70
2023/07/29 09:13:57;;;;;;;2.10;1.25;;;;;;;26.67;54.66;100610.44;4975243;28;20481;-71
2023/07/29 09:16:23;;;;;;;1.42;1.13;;;;;;;26.01;55.71;100602.91;4976445;28;20033;-70
2023/07/29 09:18:50;;;;;;;1.55;1.13;;;;;;;26.38;56.55;100603.94;4979628;28;20026;-71
2023/07/29 09:21:17;;;;;;;1.17;1.08;;;;;;;27.40;52.70;100589.53;4981405;28;20092;-71
2023/07/29 09:23:44;;;;;;;1.73;1.00;;;;;;;28.63;50.81;100589.09;4974256;28;20026;-70
2023/07/29 09:26:10;;;;;;;1.30;1.10;;;;;;;29.84;46.70;100586.56;4977713;28;20030;-69
2023/07/29 09:28:40;;;;;;;2.35;1.10;;;;;;;30.61;45.34;100598.78;4967335;28;20086;-70
2023/07/29 09:31:05;;;;;;;1.20;1.10;;;;;;;31.05;43.21;100590.81;4977418;28;20026;-70
2023/07/29 09:33:37;;;;;;;1.17;1.00;;;;;;;31.73;41.79;100580.06;4976382;28;20023;-69
2023/07/29 09:36:09;;;;;;;2.17;1.10;;;;;;;31.99;42.37;100587.28;4975532;28;20029;-70
2023/07/29 09:38:35;;;;;;;1.75;1.27;;;;;;;30.34;43.03;100588.88;4979862;28;20113;-70
2023/07/29 09:41:04;;;;;;;1.38;1.00;;;;;;;29.57;45.11;100580.22;4975109;28;20030;-69
2023/07/29 09:43:34;;;;;;;2.33;1.27;;;;;;;28.68;47.75;100594.84;4978176;28;20042;-70
2023/07/29 09:46:04;;;;;;;1.25;1.15;;;;;;;28.36;48.33;100595.47;4978567;28;20044;-69
2023/07/29 09:48:38;;;;;;;1.60;1.20;;;;;;;28.41;48.68;100595.72;4978629;28;20057;-69
2023/07/29 09:51:14;;;;;;;1.30;1.20;;;;;;;27.62;50.97;100596.69;4975912;28;20041;-70
2023/07/29 09:53:45;;;;;;;1.65;1.25;;;;;;;26.13;52.67;100607.94;4974842;28;20190;-70
2023/07/29 09:56:11;;;;;;;1.17;1.00;;;;;;;25.37;56.91;100602.34;4981512;28;20443;-70
2023/07/29 09:58:38;;;;;;;3.17;1.23;;;;;;;24.94;58.61;100601.03;4971696;28;20040;-70
2023/07/29 10:01:05;;;;;;;1.30;1.20;;;;;;;24.66;58.67;100611.50;4980286;28;20153;-70
2023/07/29 10:03:32;;;;;;;1.65;1.20;;;;;;;24.31;59.80;100610.91;4990785;28;20042;-70
2023/07/29 10:06:02;;;;;;;1.63;1.35;;;;;;;24.02;61.05;100598.69;4969096;28;20066;-70
2023/07/29 10:08:31;;;;;;;1.75;1.40;;;;;;;23.74;63.30;100597.34;4967510;28;20034;-69
2023/07/29 10:11:07;;;;;;;1.52;1.30;;;;;;;23.34;63.79;100607.97;4967449;28;20019;-69
2023/07/29 10:13:33;;;;;;;3.80;1.65;;;;;;;23.12;66.08;100592.31;4981974;28;20038;-69
2023/07/29 10:16:02;;;;;;;2.90;1.23;;;;;;;23.21;65.48;100596.75;4982079;28;20037;-69
2023/07/29 10:18:28;;;;;;;1.70;1.40;;;;;;;24.26;64.25;100591.53;4982279;28;20105;-69
2023/07/29 10:20:56;;;;;;;1.30;1.20;;;;;;;25.81;59.61;100597.13;4966550;28;20154;-69
2023/07/29 10:23:24;;;;;;;1.42;1.27;;;;;;;26.79;55.08;100601.56;4981120;28;20555;-69
2023/07/29 10:26:10;;;;;;;1.20;1.10;;;;;;;27.41;54.90;100593.94;4966700;28;20058;-69
2023/07/29 10:28:40;;;;;;;1.60;1.38;;;;;;;28.83;50.74;100597.41;4966245;28;20058;-70
2023/07/29 10:31:06;;;;;;;1.77;1.20;;;;;;;30.40;45.08;100593.53;4967993;28;20046;-69
2023/07/29 10:33:34;;;;;;;2.20;1.30;;;;;;;31.17;44.40;100592.66;4981383;28;20499;-69
2023/07/29 10:36:00;;;;;;;1.77;1.10;;;;;;;32.65;40.27;100585.81;4971947;28;20440;-69
2023/07/29 10:38:26;;;;;;;1.65;1.35;;;;;;;33.88;38.26;100579.06;4979823;28;20026;-70
2023/07/29 10:40:58;;;;;;;1.25;1.10;;;;;;;33.07;37.36;100585.97;4969262;28;20042;-70
2023/07/29 10:43:36;;;;;;;2.50;1.40;;;;;;;32.06;40.07;100584.47;4966099;28;20049;-70
2023/07/29 10:46:19;;;;;;;1.58;1.20;;;;;;;30.83;43.78;100584.78;4966660;28;20050;-70
2023/07/29 10:48:53;;;;;;;1.52;1.13;;;;;;;30.74;43.58;100586.94;4966322;28;20074;-69
2023/07/29 10:51:34;;;;;;;1.42;1.13;;;;;;;30.22;44.32;100584.06;4971452;28;20027;-70
2023/07/29 10:54:01;;;;;;;2.08;1.20;;;;;;;28.93;45.91;100575.16;4985006;28;20034;-69
2023/07/29 10:56:28;;;;;;;1.80;1.20;;;;;;;27.85;48.50;100566.44;4980181;28;20130;-70
2023/07/29 10:59:10;;;;;;;2.42;1.27;;;;;;;27.15;50.69;100568.03;4979688;28;20031;-69
2023/07/29 11:01:39;;;;;;;1.33;1.23;;;;;;;26.53;51.81;100576.66;4978441;28;20102;-69
2023/07/29 11:04:20;;;;;;;2.65;1.40;;;;;;;26.31;53.08;100579.25;4965986;28;20041;-69
2023/07/29 11:07:03;;;;;;;1.30;1.20;;;;;;;25.75;55.47;100576.03;4972829;28;20046;-69
2023/07/29 11:09:47;;;;;;;2.25;1.38;;;;;;;25.49;57.42;100572.81;4966671;28;20035;-70
2023/07/29 11:12:51;;;;;;;1.50;1.40;;;;;;;25.37;58.07;100568.81;4981176;28;20354;-70
2023/07/29 11:15:25;;;;;;;2.50;2.05;;;;;;;25.07;58.29;100574.91;4965298;28;20157;-69
2023/07/29 11:17:56;;;;;;;1.85;1.30;;;;;;;24.72;58.57;100579.00;4986662;28;20058;-69
2023/07/29 11:20:24;;;;;;;2.13;1.42;;;;;;;24.35;59.38;100580.47;4974628;28;20110;-69
2023/07/29 11:22:50;;;;;;;1.67;1.58;;;;;;;23.99;61.93;100573.72;4967594;28;20062;-69